sensor_id;sensor_type;location;lat;lon;timestamp;pressure;altitude;pressure_sealevel;temperature
33267;BMP180;19638;49.080;11.896;2023-12-04T00:02:04;96602.00;;;-4.90
33267;BMP180;19638;49.080;11.896;2023-12-04T00:06:07;96594.00;;;-5.00
33267;BMP180;19638;49.080;11.896;2023-12-04T00:10:12;96591.00;;;-5.00
33267;BMP180;19638;49.080;11.896;2023-12-04T00:14:15;96590.00;;;-5.10
33267;BMP180;19638;49.080;11.896;2023-12-04T00:18:18;96579.00;;;-5.20
33267;BMP180;19638;49.080;11.896;2023-12-04T00:22:27;96571.00;;;-5.20
33267;BMP180;19638;49.080;11.896;2023-12-04T00:26:38;96561.00;;;-5.30
33267;BMP180;19638;49.080;11.896;2023-12-04T00:30:41;96556.00;;;-5.30
33267;BMP180;19638;49.080;11.896;2023-12-04T00:34:44;96558.00;;;-5.40
33267;BMP180;19638;49.080;11.896;2023-12-04T00:38:47;96551.00;;;-5.40
33267;BMP180;19638;49.080;11.896;2023-12-04T00:42:52;96537.00;;;-5.50
33267;BMP180;19638;49.080;11.896;2023-12-04T00:46:55;96545.00;;;-5.50
33267;BMP180;19638;49.080;11.896;2023-12-04T00:50:58;96550.00;;;-5.60
33267;BMP180;19638;49.080;11.896;2023-12-04T00:55:01;96557.00;;;-5.60
33267;BMP180;19638;49.080;11.896;2023-12-04T00:59:07;96540.00;;;-5.70
33267;BMP180;19638;49.080;11.896;2023-12-04T01:03:10;96539.00;;;-5.90
33267;BMP180;19638;49.080;11.896;2023-12-04T01:07:13;96523.00;;;-5.90
33267;BMP180;19638;49.080;11.896;2023-12-04T01:11:17;96522.00;;;-6.00
33267;BMP180;19638;49.080;11.896;2023-12-04T01:15:22;96520.00;;;-5.90
33267;BMP180;19638;49.080;11.896;2023-12-04T01:19:25;96520.00;;;-5.90
33267;BMP180;19638;49.080;11.896;2023-12-04T01:23:29;96516.00;;;-6.00
33267;BMP180;19638;49.080;11.896;2023-12-04T01:27:32;96504.00;;;-6.00
33267;BMP180;19638;49.080;11.896;2023-12-04T01:31:38;96509.00;;;-5.90
33267;BMP180;19638;49.080;11.896;2023-12-04T01:35:41;96497.00;;;-5.90
33267;BMP180;19638;49.080;11.896;2023-12-04T01:39:44;96489.00;;;-5.80
33267;BMP180;19638;49.080;11.896;2023-12-04T01:43:47;96490.00;;;-5.80
33267;BMP180;19638;49.080;11.896;2023-12-04T01:47:52;96478.00;;;-5.80
33267;BMP180;19638;49.080;11.896;2023-12-04T01:51:55;96476.00;;;-5.80
33267;BMP180;19638;49.080;11.896;2023-12-04T01:55:59;96467.00;;;-5.80
33267;BMP180;19638;49.080;11.896;2023-12-04T02:00:02;96459.00;;;-5.80
33267;BMP180;19638;49.080;11.896;2023-12-04T02:04:09;96459.00;;;-5.80
33267;BMP180;19638;49.080;11.896;2023-12-04T02:08:12;96449.00;;;-5.80
33267;BMP180;19638;49.080;11.896;2023-12-04T02:12:15;96442.00;;;-5.80
33267;BMP180;19638;49.080;11.896;2023-12-04T02:16:19;96443.00;;;-5.70
33267;BMP180;19638;49.080;11.896;2023-12-04T02:20:32;96426.00;;;-5.70
33267;BMP180;19638;49.080;11.896;2023-12-04T02:24:44;96420.00;;;-5.80
33267;BMP180;19638;49.080;11.896;2023-12-04T02:28:55;96420.00;;;-5.80
33267;BMP180;19638;49.080;11.896;2023-12-04T02:33:02;96411.00;;;-5.80
33267;BMP180;19638;49.080;11.896;2023-12-04T02:37:10;96415.00;;;-5.70
33267;BMP180;19638;49.080;11.896;2023-12-04T02:41:15;96415.00;;;-5.80
33267;BMP180;19638;49.080;11.896;2023-12-04T02:45:19;96406.00;;;-5.70
33267;BMP180;19638;49.080;11.896;2023-12-04T02:49:22;96403.00;;;-5.80
33267;BMP180;19638;49.080;11.896;2023-12-04T02:53:26;96391.00;;;-5.80
33267;BMP180;19638;49.080;11.896;2023-12-04T02:57:30;96389.00;;;-5.80
33267;BMP180;19638;49.080;11.896;2023-12-04T03:05:50;96389.00;;;-5.90
33267;BMP180;19638;49.080;11.896;2023-12-04T03:09:53;96386.00;;;-5.80
33267;BMP180;19638;49.080;11.896;2023-12-04T03:13:59;96385.00;;;-5.80
33267;BMP180;19638;49.080;11.896;2023-12-04T03:18:03;96382.00;;;-5.80
33267;BMP180;19638;49.080;11.896;2023-12-04T03:22:07;96381.00;;;-5.80
33267;BMP180;19638;49.080;11.896;2023-12-04T03:26:11;96362.00;;;-5.80
33267;BMP180;19638;49.080;11.896;2023-12-04T03:30:15;96350.00;;;-5.90
33267;BMP180;19638;49.080;11.896;2023-12-04T03:34:19;96359.00;;;-5.90
33267;BMP180;19638;49.080;11.896;2023-12-04T03:38:22;96356.00;;;-6.00
33267;BMP180;19638;49.080;11.896;2023-12-04T03:42:25;96358.00;;;-6.00
33267;BMP180;19638;49.080;11.896;2023-12-04T03:46:29;96360.00;;;-6.00
33267;BMP180;19638;49.080;11.896;2023-12-04T03:50:33;96361.00;;;-5.90
33267;BMP180;19638;49.080;11.896;2023-12-04T03:54:36;96350.00;;;-5.90
33267;BMP180;19638;49.080;11.896;2023-12-04T03:58:39;96333.00;;;-5.90
33267;BMP180;19638;49.080;11.896;2023-12-04T04:02:43;96338.00;;;-5.90
33267;BMP180;19638;49.080;11.896;2023-12-04T04:06:48;96329.00;;;-5.90
33267;BMP180;19638;49.080;11.896;2023-12-04T04:10:51;96327.00;;;-5.90
33267;BMP180;19638;49.080;11.896;2023-12-04T04:14:54;96318.00;;;-6.00
33267;BMP180;19638;49.080;11.896;2023-12-04T04:18:59;96321.00;;;-6.10
33267;BMP180;19638;49.080;11.896;2023-12-04T04:23:02;96313.00;;;-6.20
33267;BMP180;19638;49.080;11.896;2023-12-04T04:27:05;96301.00;;;-6.20
33267;BMP180;19638;49.080;11.896;2023-12-04T04:31:09;96294.00;;;-6.20
33267;BMP180;19638;49.080;11.896;2023-12-04T04:35:13;96290.00;;;-6.20
33267;BMP180;19638;49.080;11.896;2023-12-04T04:39:17;96295.00;;;-6.20
33267;BMP180;19638;49.080;11.896;2023-12-04T04:43:20;96297.00;;;-6.20
33267;BMP180;19638;49.080;11.896;2023-12-04T04:47:23;96300.00;;;-6.20
33267;BMP180;19638;49.080;11.896;2023-12-04T04:51:27;96302.00;;;-6.20
33267;BMP180;19638;49.080;11.896;2023-12-04T04:55:31;96292.00;;;-6.20
33267;BMP180;19638;49.080;11.896;2023-12-04T04:59:49;96280.00;;;-6.20
33267;BMP180;19638;49.080;11.896;2023-12-04T05:03:53;96289.00;;;-6.30
33267;BMP180;19638;49.080;11.896;2023-12-04T05:07:57;96278.00;;;-6.20
33267;BMP180;19638;49.080;11.896;2023-12-04T05:12:00;96274.00;;;-6.20
33267;BMP180;19638;49.080;11.896;2023-12-04T05:16:05;96263.00;;;-6.30
33267;BMP180;19638;49.080;11.896;2023-12-04T05:20:08;96270.00;;;-6.50
33267;BMP180;19638;49.080;11.896;2023-12-04T05:24:13;96268.00;;;-6.70
33267;BMP180;19638;49.080;11.896;2023-12-04T05:28:16;96261.00;;;-6.70
33267;BMP180;19638;49.080;11.896;2023-12-04T05:32:20;96253.00;;;-6.90
33267;BMP180;19638;49.080;11.896;2023-12-04T05:36:23;96255.00;;;-7.00
33267;BMP180;19638;49.080;11.896;2023-12-04T05:40:27;96262.00;;;-7.00
33267;BMP180;19638;49.080;11.896;2023-12-04T05:44:30;96261.00;;;-6.90
33267;BMP180;19638;49.080;11.896;2023-12-04T05:48:34;96241.00;;;-6.90
33267;BMP180;19638;49.080;11.896;2023-12-04T05:52:37;96244.00;;;-6.80
33267;BMP180;19638;49.080;11.896;2023-12-04T05:56:41;96240.00;;;-6.70
33267;BMP180;19638;49.080;11.896;2023-12-04T06:00:44;96241.00;;;-6.60
33267;BMP180;19638;49.080;11.896;2023-12-04T06:04:47;96223.00;;;-6.50
33267;BMP180;19638;49.080;11.896;2023-12-04T06:08:50;96221.00;;;-6.50
33267;BMP180;19638;49.080;11.896;2023-12-04T06:12:55;96215.00;;;-6.70
33267;BMP180;19638;49.080;11.896;2023-12-04T06:16:58;96216.00;;;-6.50
33267;BMP180;19638;49.080;11.896;2023-12-04T06:21:01;96214.00;;;-6.40
33267;BMP180;19638;49.080;11.896;2023-12-04T06:25:06;96213.00;;;-6.40
33267;BMP180;19638;49.080;11.896;2023-12-04T06:29:11;96211.00;;;-6.20
33267;BMP180;19638;49.080;11.896;2023-12-04T06:33:15;96200.00;;;-6.10
33267;BMP180;19638;49.080;11.896;2023-12-04T06:37:20;96196.00;;;-6.00
33267;BMP180;19638;49.080;11.896;2023-12-04T06:41:24;96199.00;;;-5.90
33267;BMP180;19638;49.080;11.896;2023-12-04T06:45:36;96189.00;;;-5.70
33267;BMP180;19638;49.080;11.896;2023-12-04T06:49:39;96182.00;;;-5.60
33267;BMP180;19638;49.080;11.896;2023-12-04T06:53:43;96190.00;;;-5.60
33267;BMP180;19638;49.080;11.896;2023-12-04T06:57:46;96186.00;;;-5.60
33267;BMP180;19638;49.080;11.896;2023-12-04T07:01:50;96179.00;;;-5.50
33267;BMP180;19638;49.080;11.896;2023-12-04T07:05:53;96170.00;;;-5.60
33267;BMP180;19638;49.080;11.896;2023-12-04T07:09:57;96165.00;;;-5.60
33267;BMP180;19638;49.080;11.896;2023-12-04T07:14:00;96158.00;;;-5.50
33267;BMP180;19638;49.080;11.896;2023-12-04T07:18:04;96159.00;;;-5.50
33267;BMP180;19638;49.080;11.896;2023-12-04T07:22:08;96148.00;;;-5.50
33267;BMP180;19638;49.080;11.896;2023-12-04T07:26:11;96146.00;;;-5.40
33267;BMP180;19638;49.080;11.896;2023-12-04T07:30:14;96145.00;;;-5.40
33267;BMP180;19638;49.080;11.896;2023-12-04T07:34:21;96142.00;;;-5.40
33267;BMP180;19638;49.080;11.896;2023-12-04T07:38:24;96144.00;;;-5.30
33267;BMP180;19638;49.080;11.896;2023-12-04T07:42:30;96151.00;;;-5.20
33267;BMP180;19638;49.080;11.896;2023-12-04T07:46:33;96143.00;;;-5.00
33267;BMP180;19638;49.080;11.896;2023-12-04T07:50:38;96138.00;;;-4.90
33267;BMP180;19638;49.080;11.896;2023-12-04T07:54:41;96137.00;;;-4.90
33267;BMP180;19638;49.080;11.896;2023-12-04T07:58:45;96123.00;;;-5.00
33267;BMP180;19638;49.080;11.896;2023-12-04T08:02:48;96127.00;;;-5.10
33267;BMP180;19638;49.080;11.896;2023-12-04T08:06:53;96118.00;;;-4.90
33267;BMP180;19638;49.080;11.896;2023-12-04T08:11:03;96115.00;;;-4.80
33267;BMP180;19638;49.080;11.896;2023-12-04T08:15:07;96120.00;;;-5.00
33267;BMP180;19638;49.080;11.896;2023-12-04T08:19:10;96124.00;;;-4.90
33267;BMP180;19638;49.080;11.896;2023-12-04T08:23:15;96117.00;;;-4.70
33267;BMP180;19638;49.080;11.896;2023-12-04T08:27:18;96104.00;;;-4.70
33267;BMP180;19638;49.080;11.896;2023-12-04T08:31:22;96096.00;;;-4.60
33267;BMP180;19638;49.080;11.896;2023-12-04T08:35:25;96086.00;;;-4.60
33267;BMP180;19638;49.080;11.896;2023-12-04T08:39:29;96085.00;;;-4.40
33267;BMP180;19638;49.080;11.896;2023-12-04T08:43:33;96084.00;;;-4.30
33267;BMP180;19638;49.080;11.896;2023-12-04T08:47:47;96092.00;;;-4.30
33267;BMP180;19638;49.080;11.896;2023-12-04T08:51:51;96088.00;;;-4.10
33267;BMP180;19638;49.080;11.896;2023-12-04T08:55:56;96086.00;;;-3.80
33267;BMP180;19638;49.080;11.896;2023-12-04T09:00:00;96099.00;;;-3.50
33267;BMP180;19638;49.080;11.896;2023-12-04T09:04:03;96095.00;;;-3.30
33267;BMP180;19638;49.080;11.896;2023-12-04T09:08:06;96092.00;;;-3.10
33267;BMP180;19638;49.080;11.896;2023-12-04T09:12:14;96082.00;;;-3.00
33267;BMP180;19638;49.080;11.896;2023-12-04T09:16:17;96093.00;;;-2.80
33267;BMP180;19638;49.080;11.896;2023-12-04T09:20:20;96087.00;;;-2.80
33267;BMP180;19638;49.080;11.896;2023-12-04T09:24:23;96086.00;;;-2.70
33267;BMP180;19638;49.080;11.896;2023-12-04T09:28:28;96090.00;;;-2.50
33267;BMP180;19638;49.080;11.896;2023-12-04T09:32:31;96092.00;;;-2.40
33267;BMP180;19638;49.080;11.896;2023-12-04T09:36:35;96081.00;;;-2.20
33267;BMP180;19638;49.080;11.896;2023-12-04T09:40:38;96072.00;;;-2.20
33267;BMP180;19638;49.080;11.896;2023-12-04T09:44:42;96067.00;;;-2.10
33267;BMP180;19638;49.080;11.896;2023-12-04T09:48:46;96075.00;;;-1.80
33267;BMP180;19638;49.080;11.896;2023-12-04T09:52:50;96054.00;;;-1.60
33267;BMP180;19638;49.080;11.896;2023-12-04T09:56:54;96052.00;;;-1.40
33267;BMP180;19638;49.080;11.896;2023-12-04T10:00:59;96041.00;;;-1.40
33267;BMP180;19638;49.080;11.896;2023-12-04T10:05:03;96042.00;;;-1.50
33267;BMP180;19638;49.080;11.896;2023-12-04T10:09:07;96040.00;;;-1.30
33267;BMP180;19638;49.080;11.896;2023-12-04T10:13:13;96034.00;;;-1.20
33267;BMP180;19638;49.080;11.896;2023-12-04T10:17:39;96025.00;;;-1.10
33267;BMP180;19638;49.080;11.896;2023-12-04T10:21:43;96026.00;;;-0.90
33267;BMP180;19638;49.080;11.896;2023-12-04T10:25:48;96027.00;;;-0.60
33267;BMP180;19638;49.080;11.896;2023-12-04T10:29:52;96004.00;;;-0.50
33267;BMP180;19638;49.080;11.896;2023-12-04T10:34:00;96003.00;;;-0.60
33267;BMP180;19638;49.080;11.896;2023-12-04T10:38:04;96002.00;;;-0.30
33267;BMP180;19638;49.080;11.896;2023-12-04T10:42:07;95997.00;;;0.00
33267;BMP180;19638;49.080;11.896;2023-12-04T10:46:10;95979.00;;;0.10
33267;BMP180;19638;49.080;11.896;2023-12-04T10:50:16;95976.00;;;0.20
33267;BMP180;19638;49.080;11.896;2023-12-04T10:54:20;95976.00;;;0.20
33267;BMP180;19638;49.080;11.896;2023-12-04T10:58:26;95974.00;;;0.20
33267;BMP180;19638;49.080;11.896;2023-12-04T11:02:33;95962.00;;;0.40
33267;BMP180;19638;49.080;11.896;2023-12-04T11:06:41;95951.00;;;0.20
33267;BMP180;19638;49.080;11.896;2023-12-04T11:10:49;95940.00;;;0.10
33267;BMP180;19638;49.080;11.896;2023-12-04T11:14:56;95942.00;;;0.20
33267;BMP180;19638;49.080;11.896;2023-12-04T11:19:06;95936.00;;;0.30
33267;BMP180;19638;49.080;11.896;2023-12-04T11:23:15;95935.00;;;0.40
33267;BMP180;19638;49.080;11.896;2023-12-04T11:27:19;95921.00;;;0.30
33267;BMP180;19638;49.080;11.896;2023-12-04T11:31:23;95923.00;;;0.20
33267;BMP180;19638;49.080;11.896;2023-12-04T11:35:30;95908.00;;;0.10
33267;BMP180;19638;49.080;11.896;2023-12-04T11:39:42;95898.00;;;-0.20
33267;BMP180;19638;49.080;11.896;2023-12-04T11:43:46;95901.00;;;-0.20
33267;BMP180;19638;49.080;11.896;2023-12-04T11:47:51;95899.00;;;-0.30
33267;BMP180;19638;49.080;11.896;2023-12-04T11:51:54;95892.00;;;-0.60
33267;BMP180;19638;49.080;11.896;2023-12-04T11:56:08;95883.00;;;-0.70
33267;BMP180;19638;49.080;11.896;2023-12-04T12:00:18;95889.00;;;-0.70
33267;BMP180;19638;49.080;11.896;2023-12-04T12:04:24;95864.00;;;-1.10
33267;BMP180;19638;49.080;11.896;2023-12-04T12:08:31;95864.00;;;-1.50
33267;BMP180;19638;49.080;11.896;2023-12-04T12:12:36;95871.00;;;-1.50
33267;BMP180;19638;49.080;11.896;2023-12-04T12:16:41;95870.00;;;-1.30
33267;BMP180;19638;49.080;11.896;2023-12-04T12:20:44;95868.00;;;-1.10
33267;BMP180;19638;49.080;11.896;2023-12-04T12:24:48;95860.00;;;-1.00
33267;BMP180;19638;49.080;11.896;2023-12-04T12:28:53;95858.00;;;-1.00
33267;BMP180;19638;49.080;11.896;2023-12-04T12:32:56;95864.00;;;-1.00
33267;BMP180;19638;49.080;11.896;2023-12-04T12:37:00;95869.00;;;-0.80
33267;BMP180;19638;49.080;11.896;2023-12-04T12:41:06;95854.00;;;-0.60
33267;BMP180;19638;49.080;11.896;2023-12-04T12:45:13;95853.00;;;-0.60
33267;BMP180;19638;49.080;11.896;2023-12-04T12:49:17;95844.00;;;-0.60
33267;BMP180;19638;49.080;11.896;2023-12-04T12:53:37;95836.00;;;-0.70
33267;BMP180;19638;49.080;11.896;2023-12-04T12:57:40;95840.00;;;-0.80
33267;BMP180;19638;49.080;11.896;2023-12-04T13:01:44;95832.00;;;-0.80
33267;BMP180;19638;49.080;11.896;2023-12-04T13:05:48;95825.00;;;-0.90
33267;BMP180;19638;49.080;11.896;2023-12-04T13:09:52;95821.00;;;-1.20
33267;BMP180;19638;49.080;11.896;2023-12-04T13:13:55;95822.00;;;-1.60
33267;BMP180;19638;49.080;11.896;2023-12-04T13:18:01;95806.00;;;-1.70
33267;BMP180;19638;49.080;11.896;2023-12-04T13:22:04;95807.00;;;-1.90
33267;BMP180;19638;49.080;11.896;2023-12-04T13:26:08;95804.00;;;-2.10
33267;BMP180;19638;49.080;11.896;2023-12-04T13:30:12;95806.00;;;-2.20
33267;BMP180;19638;49.080;11.896;2023-12-04T13:34:17;95803.00;;;-2.20
33267;BMP180;19638;49.080;11.896;2023-12-04T13:38:20;95803.00;;;-2.10
33267;BMP180;19638;49.080;11.896;2023-12-04T13:42:30;95791.00;;;-2.10
33267;BMP180;19638;49.080;11.896;2023-12-04T13:46:51;95785.00;;;-2.20
33267;BMP180;19638;49.080;11.896;2023-12-04T13:50:56;95773.00;;;-2.10
33267;BMP180;19638;49.080;11.896;2023-12-04T13:55:02;95768.00;;;-2.20
33267;BMP180;19638;49.080;11.896;2023-12-04T13:59:13;95758.00;;;-2.30
33267;BMP180;19638;49.080;11.896;2023-12-04T14:03:21;95742.00;;;-2.40
33267;BMP180;19638;49.080;11.896;2023-12-04T14:07:27;95732.00;;;-2.40
33267;BMP180;19638;49.080;11.896;2023-12-04T14:11:30;95734.00;;;-2.50
33267;BMP180;19638;49.080;11.896;2023-12-04T14:15:33;95723.00;;;-2.50
33267;BMP180;19638;49.080;11.896;2023-12-04T14:19:37;95731.00;;;-2.40
33267;BMP180;19638;49.080;11.896;2023-12-04T14:23:42;95731.00;;;-2.40
33267;BMP180;19638;49.080;11.896;2023-12-04T14:27:45;95719.00;;;-2.50
33267;BMP180;19638;49.080;11.896;2023-12-04T14:31:49;95711.00;;;-2.50
33267;BMP180;19638;49.080;11.896;2023-12-04T14:35:53;95706.00;;;-2.60
33267;BMP180;19638;49.080;11.896;2023-12-04T14:39:57;95692.00;;;-2.70
33267;BMP180;19638;49.080;11.896;2023-12-04T14:44:00;95699.00;;;-2.70
33267;BMP180;19638;49.080;11.896;2023-12-04T14:48:05;95708.00;;;-2.70
33267;BMP180;19638;49.080;11.896;2023-12-04T14:52:09;95705.00;;;-2.60
33267;BMP180;19638;49.080;11.896;2023-12-04T14:56:15;95693.00;;;-2.60
33267;BMP180;19638;49.080;11.896;2023-12-04T15:00:26;95689.00;;;-2.50
33267;BMP180;19638;49.080;11.896;2023-12-04T15:04:47;95688.00;;;-2.50
33267;BMP180;19638;49.080;11.896;2023-12-04T15:09:22;95666.00;;;-2.60
33267;BMP180;19638;49.080;11.896;2023-12-04T15:13:58;95664.00;;;-2.80
33267;BMP180;19638;49.080;11.896;2023-12-04T15:18:11;95651.00;;;-2.90
33267;BMP180;19638;49.080;11.896;2023-12-04T15:22:36;95660.00;;;-2.90
33267;BMP180;19638;49.080;11.896;2023-12-04T15:26:39;95668.00;;;-2.90
33267;BMP180;19638;49.080;11.896;2023-12-04T15:30:44;95658.00;;;-2.80
33267;BMP180;19638;49.080;11.896;2023-12-04T15:34:47;95652.00;;;-2.70
33267;BMP180;19638;49.080;11.896;2023-12-04T15:38:52;95632.00;;;-2.90
33267;BMP180;19638;49.080;11.896;2023-12-04T15:42:55;95645.00;;;-2.90
33267;BMP180;19638;49.080;11.896;2023-12-04T15:47:00;95654.00;;;-2.90
33267;BMP180;19638;49.080;11.896;2023-12-04T15:51:06;95652.00;;;-2.80
33267;BMP180;19638;49.080;11.896;2023-12-04T15:55:09;95662.00;;;-2.80
33267;BMP180;19638;49.080;11.896;2023-12-04T15:59:17;95676.00;;;-2.70
33267;BMP180;19638;49.080;11.896;2023-12-04T16:03:21;95673.00;;;-2.70
33267;BMP180;19638;49.080;11.896;2023-12-04T16:07:24;95687.00;;;-2.70
33267;BMP180;19638;49.080;11.896;2023-12-04T16:11:27;95689.00;;;-2.70
33267;BMP180;19638;49.080;11.896;2023-12-04T16:15:30;95671.00;;;-2.70
33267;BMP180;19638;49.080;11.896;2023-12-04T16:19:35;95677.00;;;-3.10
33267;BMP180;19638;49.080;11.896;2023-12-04T16:23:39;95660.00;;;-3.50
33267;BMP180;19638;49.080;11.896;2023-12-04T16:27:42;95666.00;;;-3.90
33267;BMP180;19638;49.080;11.896;2023-12-04T16:31:45;95661.00;;;-4.20
33267;BMP180;19638;49.080;11.896;2023-12-04T16:35:50;95655.00;;;-4.50
33267;BMP180;19638;49.080;11.896;2023-12-04T16:39:53;95664.00;;;-4.60
33267;BMP180;19638;49.080;11.896;2023-12-04T16:43:56;95663.00;;;-4.70
33267;BMP180;19638;49.080;11.896;2023-12-04T16:48:00;95652.00;;;-4.60
33267;BMP180;19638;49.080;11.896;2023-12-04T16:52:05;95648.00;;;-4.50
33267;BMP180;19638;49.080;11.896;2023-12-04T16:56:12;95640.00;;;-4.50
33267;BMP180;19638;49.080;11.896;2023-12-04T17:00:15;95621.00;;;-4.40
33267;BMP180;19638;49.080;11.896;2023-12-04T17:04:19;95603.00;;;-4.30
33267;BMP180;19638;49.080;11.896;2023-12-04T17:08:24;95614.00;;;-4.20
33267;BMP180;19638;49.080;11.896;2023-12-04T17:12:27;95614.00;;;-4.10
33267;BMP180;19638;49.080;11.896;2023-12-04T17:16:33;95611.00;;;-4.00
33267;BMP180;19638;49.080;11.896;2023-12-04T17:20:38;95605.00;;;-4.00
33267;BMP180;19638;49.080;11.896;2023-12-04T17:24:43;95623.00;;;-3.80
33267;BMP180;19638;49.080;11.896;2023-12-04T17:28:46;95613.00;;;-3.70
33267;BMP180;19638;49.080;11.896;2023-12-04T17:32:49;95607.00;;;-3.50
33267;BMP180;19638;49.080;11.896;2023-12-04T17:36:53;95606.00;;;-3.30
33267;BMP180;19638;49.080;11.896;2023-12-04T17:40:57;95596.00;;;-3.20
33267;BMP180;19638;49.080;11.896;2023-12-04T17:45:02;95586.00;;;-3.10
33267;BMP180;19638;49.080;11.896;2023-12-04T17:49:06;95588.00;;;-3.00
33267;BMP180;19638;49.080;11.896;2023-12-04T17:53:09;95593.00;;;-3.00
33267;BMP180;19638;49.080;11.896;2023-12-04T17:57:14;95582.00;;;-2.90
33267;BMP180;19638;49.080;11.896;2023-12-04T18:01:17;95586.00;;;-2.80
33267;BMP180;19638;49.080;11.896;2023-12-04T18:05:21;95578.00;;;-2.80
33267;BMP180;19638;49.080;11.896;2023-12-04T18:09:24;95574.00;;;-2.70
33267;BMP180;19638;49.080;11.896;2023-12-04T18:13:30;95566.00;;;-2.80
33267;BMP180;19638;49.080;11.896;2023-12-04T18:17:37;95577.00;;;-2.80
33267;BMP180;19638;49.080;11.896;2023-12-04T18:21:44;95576.00;;;-2.80
33267;BMP180;19638;49.080;11.896;2023-12-04T18:25:48;95574.00;;;-2.80
33267;BMP180;19638;49.080;11.896;2023-12-04T18:29:53;95591.00;;;-2.90
33267;BMP180;19638;49.080;11.896;2023-12-04T18:33:58;95578.00;;;-2.90
33267;BMP180;19638;49.080;11.896;2023-12-04T18:38:05;95585.00;;;-2.90
33267;BMP180;19638;49.080;11.896;2023-12-04T18:42:11;95590.00;;;-2.90
33267;BMP180;19638;49.080;11.896;2023-12-04T18:46:17;95562.00;;;-2.90
33267;BMP180;19638;49.080;11.896;2023-12-04T18:50:22;95568.00;;;-3.00
33267;BMP180;19638;49.080;11.896;2023-12-04T18:54:25;95569.00;;;-3.00
33267;BMP180;19638;49.080;11.896;2023-12-04T18:58:28;95562.00;;;-3.00
33267;BMP180;19638;49.080;11.896;2023-12-04T19:02:35;95557.00;;;-3.00
33267;BMP180;19638;49.080;11.896;2023-12-04T19:06:39;95565.00;;;-3.00
33267;BMP180;19638;49.080;11.896;2023-12-04T19:10:43;95553.00;;;-3.00
33267;BMP180;19638;49.080;11.896;2023-12-04T19:14:48;95563.00;;;-3.10
33267;BMP180;19638;49.080;11.896;2023-12-04T19:18:53;95557.00;;;-3.00
33267;BMP180;19638;49.080;11.896;2023-12-04T19:23:03;95562.00;;;-2.90
33267;BMP180;19638;49.080;11.896;2023-12-04T19:27:06;95553.00;;;-2.80
33267;BMP180;19638;49.080;11.896;2023-12-04T19:31:09;95572.00;;;-2.80
33267;BMP180;19638;49.080;11.896;2023-12-04T19:35:14;95550.00;;;-2.80
33267;BMP180;19638;49.080;11.896;2023-12-04T19:39:18;95545.00;;;-2.80
33267;BMP180;19638;49.080;11.896;2023-12-04T19:43:21;95543.00;;;-2.80
33267;BMP180;19638;49.080;11.896;2023-12-04T19:47:25;95540.00;;;-2.90
33267;BMP180;19638;49.080;11.896;2023-12-04T19:51:29;95545.00;;;-3.00
33267;BMP180;19638;49.080;11.896;2023-12-04T19:55:33;95537.00;;;-3.00
33267;BMP180;19638;49.080;11.896;2023-12-04T19:59:36;95542.00;;;-3.20
33267;BMP180;19638;49.080;11.896;2023-12-04T20:03:40;95540.00;;;-3.30
33267;BMP180;19638;49.080;11.896;2023-12-04T20:07:45;95529.00;;;-3.40
33267;BMP180;19638;49.080;11.896;2023-12-04T20:11:51;95527.00;;;-3.50
33267;BMP180;19638;49.080;11.896;2023-12-04T20:15:54;95540.00;;;-3.50
33267;BMP180;19638;49.080;11.896;2023-12-04T20:19:57;95541.00;;;-3.60
33267;BMP180;19638;49.080;11.896;2023-12-04T20:24:01;95532.00;;;-3.60
33267;BMP180;19638;49.080;11.896;2023-12-04T20:28:05;95532.00;;;-3.60
33267;BMP180;19638;49.080;11.896;2023-12-04T20:32:09;95530.00;;;-3.60
33267;BMP180;19638;49.080;11.896;2023-12-04T20:36:12;95526.00;;;-3.60
33267;BMP180;19638;49.080;11.896;2023-12-04T20:40:16;95528.00;;;-3.70
33267;BMP180;19638;49.080;11.896;2023-12-04T20:44:20;95526.00;;;-3.80
33267;BMP180;19638;49.080;11.896;2023-12-04T20:48:23;95524.00;;;-3.80
33267;BMP180;19638;49.080;11.896;2023-12-04T20:52:26;95536.00;;;-3.80
33267;BMP180;19638;49.080;11.896;2023-12-04T20:56:31;95536.00;;;-3.80
33267;BMP180;19638;49.080;11.896;2023-12-04T21:00:34;95535.00;;;-3.80
33267;BMP180;19638;49.080;11.896;2023-12-04T21:04:38;95520.00;;;-3.70
33267;BMP180;19638;49.080;11.896;2023-12-04T21:08:41;95520.00;;;-3.60
33267;BMP180;19638;49.080;11.896;2023-12-04T21:12:46;95505.00;;;-3.60
33267;BMP180;19638;49.080;11.896;2023-12-04T21:16:51;95518.00;;;-3.70
33267;BMP180;19638;49.080;11.896;2023-12-04T21:21:02;95517.00;;;-3.70
33267;BMP180;19638;49.080;11.896;2023-12-04T21:25:06;95503.00;;;-3.60
33267;BMP180;19638;49.080;11.896;2023-12-04T21:29:10;95496.00;;;-3.50
33267;BMP180;19638;49.080;11.896;2023-12-04T21:33:13;95490.00;;;-3.50
33267;BMP180;19638;49.080;11.896;2023-12-04T21:37:18;95494.00;;;-3.50
33267;BMP180;19638;49.080;11.896;2023-12-04T21:41:22;95490.00;;;-3.70
33267;BMP180;19638;49.080;11.896;2023-12-04T21:45:29;95484.00;;;-3.80
33267;BMP180;19638;49.080;11.896;2023-12-04T21:49:32;95484.00;;;-4.00
33267;BMP180;19638;49.080;11.896;2023-12-04T21:53:35;95467.00;;;-4.20
33267;BMP180;19638;49.080;11.896;2023-12-04T21:57:38;95465.00;;;-4.20
33267;BMP180;19638;49.080;11.896;2023-12-04T22:01:43;95476.00;;;-4.30
33267;BMP180;19638;49.080;11.896;2023-12-04T22:05:46;95477.00;;;-4.30
33267;BMP180;19638;49.080;11.896;2023-12-04T22:09:49;95474.00;;;-4.20
33267;BMP180;19638;49.080;11.896;2023-12-04T22:13:54;95476.00;;;-4.10
33267;BMP180;19638;49.080;11.896;2023-12-04T22:18:00;95454.00;;;-3.90
33267;BMP180;19638;49.080;11.896;2023-12-04T22:22:03;95434.00;;;-3.80
33267;BMP180;19638;49.080;11.896;2023-12-04T22:26:07;95432.00;;;-3.80
33267;BMP180;19638;49.080;11.896;2023-12-04T22:30:11;95428.00;;;-3.80
33267;BMP180;19638;49.080;11.896;2023-12-04T22:34:15;95432.00;;;-3.70
33267;BMP180;19638;49.080;11.896;2023-12-04T22:38:19;95428.00;;;-3.60
33267;BMP180;19638;49.080;11.896;2023-12-04T22:42:22;95424.00;;;-3.60
33267;BMP180;19638;49.080;11.896;2023-12-04T22:46:25;95417.00;;;-3.50
33267;BMP180;19638;49.080;11.896;2023-12-04T22:50:29;95417.00;;;-3.40
33267;BMP180;19638;49.080;11.896;2023-12-04T22:54:32;95425.00;;;-3.30
33267;BMP180;19638;49.080;11.896;2023-12-04T22:58:35;95426.00;;;-3.20
33267;BMP180;19638;49.080;11.896;2023-12-04T23:02:38;95412.00;;;-3.20
33267;BMP180;19638;49.080;11.896;2023-12-04T23:06:43;95417.00;;;-3.20
33267;BMP180;19638;49.080;11.896;2023-12-04T23:10:47;95412.00;;;-3.10
33267;BMP180;19638;49.080;11.896;2023-12-04T23:14:50;95407.00;;;-3.10